sensor_id;sensor_type;location;lat;lon;timestamp;temperature;humidity
39695;DHT22;25367;-35.352;149.036;2022-08-19T00:02:12;23.40;40.70
39695;DHT22;25367;-35.352;149.036;2022-08-19T00:04:41;23.30;40.70
39695;DHT22;25367;-35.352;149.036;2022-08-19T00:07:11;23.30;40.80
39695;DHT22;25367;-35.352;149.036;2022-08-19T00:09:42;23.30;40.80
39695;DHT22;25367;-35.352;149.036;2022-08-19T00:12:12;23.40;40.80
39695;DHT22;25367;-35.352;149.036;2022-08-19T00:14:41;23.40;40.70
39695;DHT22;25367;-35.352;149.036;2022-08-19T00:17:11;23.50;40.70
39695;DHT22;25367;-35.352;149.036;2022-08-19T00:19:41;23.50;40.90
39695;DHT22;25367;-35.352;149.036;2022-08-19T00:22:10;23.50;40.70
39695;DHT22;25367;-35.352;149.036;2022-08-19T00:24:40;23.50;40.60
39695;DHT22;25367;-35.352;149.036;2022-08-19T00:27:11;23.50;40.60
39695;DHT22;25367;-35.352;149.036;2022-08-19T00:29:41;23.50;40.70
39695;DHT22;25367;-35.352;149.036;2022-08-19T00:32:10;23.40;40.70
39695;DHT22;25367;-35.352;149.036;2022-08-19T00:34:40;23.40;41.30
39695;DHT22;25367;-35.352;149.036;2022-08-19T00:37:09;23.40;40.70
39695;DHT22;25367;-35.352;149.036;2022-08-19T00:39:39;23.40;40.70
39695;DHT22;25367;-35.352;149.036;2022-08-19T00:42:10;23.50;40.70
39695;DHT22;25367;-35.352;149.036;2022-08-19T00:44:40;23.50;40.60
39695;DHT22;25367;-35.352;149.036;2022-08-19T00:47:10;23.50;40.50
39695;DHT22;25367;-35.352;149.036;2022-08-19T00:49:45;23.50;40.60
39695;DHT22;25367;-35.352;149.036;2022-08-19T00:52:17;23.50;40.50
39695;DHT22;25367;-35.352;149.036;2022-08-19T00:54:48;23.60;40.50
39695;DHT22;25367;-35.352;149.036;2022-08-19T00:57:26;23.60;40.40
39695;DHT22;25367;-35.352;149.036;2022-08-19T00:59:57;23.60;40.40
39695;DHT22;25367;-35.352;149.036;2022-08-19T01:02:28;23.60;40.40
39695;DHT22;25367;-35.352;149.036;2022-08-19T01:04:58;23.60;40.40
39695;DHT22;25367;-35.352;149.036;2022-08-19T01:07:28;23.70;40.50
39695;DHT22;25367;-35.352;149.036;2022-08-19T01:09:58;23.70;40.60
39695;DHT22;25367;-35.352;149.036;2022-08-19T01:12:34;23.70;40.60
39695;DHT22;25367;-35.352;149.036;2022-08-19T01:15:05;23.80;40.50
39695;DHT22;25367;-35.352;149.036;2022-08-19T01:17:38;23.80;40.40
39695;DHT22;25367;-35.352;149.036;2022-08-19T01:20:11;23.90;40.40
39695;DHT22;25367;-35.352;149.036;2022-08-19T01:22:47;23.80;41.00
39695;DHT22;25367;-35.352;149.036;2022-08-19T01:25:19;23.90;40.40
39695;DHT22;25367;-35.352;149.036;2022-08-19T01:27:50;23.80;40.40
39695;DHT22;25367;-35.352;149.036;2022-08-19T01:30:23;23.90;40.40
39695;DHT22;25367;-35.352;149.036;2022-08-19T01:32:53;23.90;40.50
39695;DHT22;25367;-35.352;149.036;2022-08-19T01:35:24;23.90;40.60
39695;DHT22;25367;-35.352;149.036;2022-08-19T01:37:59;24.00;40.50
39695;DHT22;25367;-35.352;149.036;2022-08-19T01:40:31;24.00;40.50
39695;DHT22;25367;-35.352;149.036;2022-08-19T01:43:01;24.10;40.40
39695;DHT22;25367;-35.352;149.036;2022-08-19T01:45:33;24.20;40.20
39695;DHT22;25367;-35.352;149.036;2022-08-19T01:48:04;24.30;40.10
39695;DHT22;25367;-35.352;149.036;2022-08-19T01:50:34;24.30;40.10
39695;DHT22;25367;-35.352;149.036;2022-08-19T01:53:09;24.30;40.10
39695;DHT22;25367;-35.352;149.036;2022-08-19T01:55:42;24.30;40.10
39695;DHT22;25367;-35.352;149.036;2022-08-19T01:58:15;24.30;40.10
39695;DHT22;25367;-35.352;149.036;2022-08-19T02:00:46;24.30;40.10
39695;DHT22;25367;-35.352;149.036;2022-08-19T02:03:17;24.20;40.10
39695;DHT22;25367;-35.352;149.036;2022-08-19T02:05:46;24.20;40.20
39695;DHT22;25367;-35.352;149.036;2022-08-19T02:08:17;24.20;40.10
39695;DHT22;25367;-35.352;149.036;2022-08-19T02:10:47;24.30;40.20
39695;DHT22;25367;-35.352;149.036;2022-08-19T02:13:16;24.30;40.10
39695;DHT22;25367;-35.352;149.036;2022-08-19T02:15:46;24.30;40.10
39695;DHT22;25367;-35.352;149.036;2022-08-19T02:18:15;24.30;40.00
39695;DHT22;25367;-35.352;149.036;2022-08-19T02:20:45;24.30;40.00
39695;DHT22;25367;-35.352;149.036;2022-08-19T02:23:17;24.40;40.00
39695;DHT22;25367;-35.352;149.036;2022-08-19T02:25:47;24.40;40.10
39695;DHT22;25367;-35.352;149.036;2022-08-19T02:28:17;24.40;40.00
39695;DHT22;25367;-35.352;149.036;2022-08-19T02:30:47;24.30;40.10
39695;DHT22;25367;-35.352;149.036;2022-08-19T02:33:17;24.30;40.10
39695;DHT22;25367;-35.352;149.036;2022-08-19T02:35:47;24.30;40.10
39695;DHT22;25367;-35.352;149.036;2022-08-19T02:38:18;24.30;40.10
39695;DHT22;25367;-35.352;149.036;2022-08-19T02:40:50;24.30;40.00
39695;DHT22;25367;-35.352;149.036;2022-08-19T02:43:21;24.40;40.10
39695;DHT22;25367;-35.352;149.036;2022-08-19T02:45:51;24.40;40.00
39695;DHT22;25367;-35.352;149.036;2022-08-19T02:48:21;24.40;40.00
39695;DHT22;25367;-35.352;149.036;2022-08-19T02:50:52;24.50;39.90
39695;DHT22;25367;-35.352;149.036;2022-08-19T02:53:24;24.50;39.90
39695;DHT22;25367;-35.352;149.036;2022-08-19T02:55:55;24.40;39.90
39695;DHT22;25367;-35.352;149.036;2022-08-19T02:58:24;24.40;40.00
39695;DHT22;25367;-35.352;149.036;2022-08-19T03:00:54;24.40;40.10
39695;DHT22;25367;-35.352;149.036;2022-08-19T03:03:24;24.30;40.10
39695;DHT22;25367;-35.352;149.036;2022-08-19T03:06:04;24.30;40.20
39695;DHT22;25367;-35.352;149.036;2022-08-19T03:08:35;24.40;40.20
39695;DHT22;25367;-35.352;149.036;2022-08-19T03:11:05;24.40;40.20
39695;DHT22;25367;-35.352;149.036;2022-08-19T03:13:35;24.50;40.10
39695;DHT22;25367;-35.352;149.036;2022-08-19T03:16:05;24.50;40.00
39695;DHT22;25367;-35.352;149.036;2022-08-19T03:18:35;24.50;39.90
39695;DHT22;25367;-35.352;149.036;2022-08-19T03:21:06;24.60;39.90
39695;DHT22;25367;-35.352;149.036;2022-08-19T03:23:37;24.60;39.90
39695;DHT22;25367;-35.352;149.036;2022-08-19T03:26:07;24.50;39.90
39695;DHT22;25367;-35.352;149.036;2022-08-19T03:28:36;24.50;39.90
39695;DHT22;25367;-35.352;149.036;2022-08-19T03:31:09;24.60;40.00
39695;DHT22;25367;-35.352;149.036;2022-08-19T03:33:38;24.50;40.00
39695;DHT22;25367;-35.352;149.036;2022-08-19T03:36:08;24.50;40.00
39695;DHT22;25367;-35.352;149.036;2022-08-19T03:38:42;24.50;40.10
39695;DHT22;25367;-35.352;149.036;2022-08-19T03:41:14;24.50;40.00
39695;DHT22;25367;-35.352;149.036;2022-08-19T03:43:44;24.60;39.90
39695;DHT22;25367;-35.352;149.036;2022-08-19T03:46:15;24.60;39.90
39695;DHT22;25367;-35.352;149.036;2022-08-19T03:48:45;24.60;39.90
39695;DHT22;25367;-35.352;149.036;2022-08-19T03:51:18;24.60;39.90
39695;DHT22;25367;-35.352;149.036;2022-08-19T03:53:51;24.60;40.00
39695;DHT22;25367;-35.352;149.036;2022-08-19T03:56:21;24.60;40.00
39695;DHT22;25367;-35.352;149.036;2022-08-19T03:58:51;24.50;40.00
39695;DHT22;25367;-35.352;149.036;2022-08-19T04:01:22;24.50;40.10
39695;DHT22;25367;-35.352;149.036;2022-08-19T04:03:51;24.50;40.20
39695;DHT22;25367;-35.352;149.036;2022-08-19T04:06:22;24.50;40.20
39695;DHT22;25367;-35.352;149.036;2022-08-19T04:08:55;24.50;40.20
39695;DHT22;25367;-35.352;149.036;2022-08-19T04:11:27;24.70;40.00
39695;DHT22;25367;-35.352;149.036;2022-08-19T04:13:57;24.80;39.60
39695;DHT22;25367;-35.352;149.036;2022-08-19T04:16:28;24.70;39.80
39695;DHT22;25367;-35.352;149.036;2022-08-19T04:18:59;24.60;39.80
39695;DHT22;25367;-35.352;149.036;2022-08-19T04:21:29;24.60;40.00
39695;DHT22;25367;-35.352;149.036;2022-08-19T04:24:00;24.60;39.90
39695;DHT22;25367;-35.352;149.036;2022-08-19T04:26:31;24.60;40.00
39695;DHT22;25367;-35.352;149.036;2022-08-19T04:29:03;24.60;40.10
39695;DHT22;25367;-35.352;149.036;2022-08-19T04:31:34;24.60;40.20
39695;DHT22;25367;-35.352;149.036;2022-08-19T04:34:05;24.60;40.20
39695;DHT22;25367;-35.352;149.036;2022-08-19T04:36:36;24.60;40.20
39695;DHT22;25367;-35.352;149.036;2022-08-19T04:39:09;24.50;40.20
39695;DHT22;25367;-35.352;149.036;2022-08-19T04:41:37;24.60;40.20
39695;DHT22;25367;-35.352;149.036;2022-08-19T04:44:07;24.70;40.00
39695;DHT22;25367;-35.352;149.036;2022-08-19T04:46:36;24.70;39.90
39695;DHT22;25367;-35.352;149.036;2022-08-19T04:49:07;24.60;40.00
39695;DHT22;25367;-35.352;149.036;2022-08-19T04:51:39;24.70;40.00
39695;DHT22;25367;-35.352;149.036;2022-08-19T04:54:11;24.70;40.00
39695;DHT22;25367;-35.352;149.036;2022-08-19T04:56:41;24.90;39.70
39695;DHT22;25367;-35.352;149.036;2022-08-19T04:59:10;24.90;39.70
39695;DHT22;25367;-35.352;149.036;2022-08-19T05:01:41;24.90;39.60
39695;DHT22;25367;-35.352;149.036;2022-08-19T05:04:11;24.70;39.80
39695;DHT22;25367;-35.352;149.036;2022-08-19T05:06:41;24.60;40.10
39695;DHT22;25367;-35.352;149.036;2022-08-19T05:09:12;24.60;40.20
39695;DHT22;25367;-35.352;149.036;2022-08-19T05:11:42;24.60;40.20
39695;DHT22;25367;-35.352;149.036;2022-08-19T05:14:12;24.60;40.20
39695;DHT22;25367;-35.352;149.036;2022-08-19T05:16:42;24.60;40.10
39695;DHT22;25367;-35.352;149.036;2022-08-19T05:19:11;24.60;40.10
39695;DHT22;25367;-35.352;149.036;2022-08-19T05:21:41;24.70;39.90
39695;DHT22;25367;-35.352;149.036;2022-08-19T05:24:13;24.90;40.30
39695;DHT22;25367;-35.352;149.036;2022-08-19T05:26:48;24.90;39.60
39695;DHT22;25367;-35.352;149.036;2022-08-19T05:29:20;24.60;39.90
39695;DHT22;25367;-35.352;149.036;2022-08-19T05:31:51;24.60;40.10
39695;DHT22;25367;-35.352;149.036;2022-08-19T05:34:21;24.50;40.20
39695;DHT22;25367;-35.352;149.036;2022-08-19T05:36:52;24.50;40.30
39695;DHT22;25367;-35.352;149.036;2022-08-19T05:39:25;24.60;40.30
39695;DHT22;25367;-35.352;149.036;2022-08-19T05:41:54;24.60;40.20
39695;DHT22;25367;-35.352;149.036;2022-08-19T05:44:25;24.70;39.90
39695;DHT22;25367;-35.352;149.036;2022-08-19T05:46:55;24.70;39.80
39695;DHT22;25367;-35.352;149.036;2022-08-19T05:49:25;24.60;40.00
39695;DHT22;25367;-35.352;149.036;2022-08-19T05:51:55;24.60;40.00
39695;DHT22;25367;-35.352;149.036;2022-08-19T05:54:26;24.60;40.10
39695;DHT22;25367;-35.352;149.036;2022-08-19T05:56:56;24.60;40.20
39695;DHT22;25367;-35.352;149.036;2022-08-19T05:59:26;24.50;40.20
39695;DHT22;25367;-35.352;149.036;2022-08-19T06:01:55;24.50;40.30
39695;DHT22;25367;-35.352;149.036;2022-08-19T06:04:24;24.50;40.30
39695;DHT22;25367;-35.352;149.036;2022-08-19T06:06:54;24.50;40.40
39695;DHT22;25367;-35.352;149.036;2022-08-19T06:09:26;24.50;40.30
39695;DHT22;25367;-35.352;149.036;2022-08-19T06:11:57;24.50;40.30
39695;DHT22;25367;-35.352;149.036;2022-08-19T06:14:30;24.50;40.20
39695;DHT22;25367;-35.352;149.036;2022-08-19T06:17:00;24.60;40.20
39695;DHT22;25367;-35.352;149.036;2022-08-19T06:19:29;24.60;40.10
39695;DHT22;25367;-35.352;149.036;2022-08-19T06:22:00;24.60;40.10
39695;DHT22;25367;-35.352;149.036;2022-08-19T06:24:31;24.60;40.20
39695;DHT22;25367;-35.352;149.036;2022-08-19T06:27:01;24.60;40.20
39695;DHT22;25367;-35.352;149.036;2022-08-19T06:29:30;24.60;40.20
39695;DHT22;25367;-35.352;149.036;2022-08-19T06:32:01;24.50;40.20
39695;DHT22;25367;-35.352;149.036;2022-08-19T06:34:32;24.50;40.20
39695;DHT22;25367;-35.352;149.036;2022-08-19T06:37:02;24.60;40.00
39695;DHT22;25367;-35.352;149.036;2022-08-19T06:39:35;24.50;40.20
39695;DHT22;25367;-35.352;149.036;2022-08-19T06:42:05;24.70;40.10
39695;DHT22;25367;-35.352;149.036;2022-08-19T06:44:40;24.80;39.80
39695;DHT22;25367;-35.352;149.036;2022-08-19T06:47:12;24.80;39.60
39695;DHT22;25367;-35.352;149.036;2022-08-19T06:49:42;24.90;39.60
39695;DHT22;25367;-35.352;149.036;2022-08-19T06:52:13;24.70;39.80
39695;DHT22;25367;-35.352;149.036;2022-08-19T06:54:44;24.60;40.00
39695;DHT22;25367;-35.352;149.036;2022-08-19T06:57:14;24.60;40.10
39695;DHT22;25367;-35.352;149.036;2022-08-19T06:59:43;24.50;40.10
39695;DHT22;25367;-35.352;149.036;2022-08-19T07:02:12;24.50;40.20
39695;DHT22;25367;-35.352;149.036;2022-08-19T07:04:42;24.40;40.30
39695;DHT22;25367;-35.352;149.036;2022-08-19T07:07:13;24.50;40.30
39695;DHT22;25367;-35.352;149.036;2022-08-19T07:09:45;24.60;40.10
39695;DHT22;25367;-35.352;149.036;2022-08-19T07:12:15;24.60;40.10
39695;DHT22;25367;-35.352;149.036;2022-08-19T07:14:44;24.60;40.10
39695;DHT22;25367;-35.352;149.036;2022-08-19T07:17:14;24.50;40.00
39695;DHT22;25367;-35.352;149.036;2022-08-19T07:19:44;24.60;40.00
39695;DHT22;25367;-35.352;149.036;2022-08-19T07:22:13;24.50;40.00
39695;DHT22;25367;-35.352;149.036;2022-08-19T07:24:45;24.50;40.60
39695;DHT22;25367;-35.352;149.036;2022-08-19T07:27:15;24.50;40.00
39695;DHT22;25367;-35.352;149.036;2022-08-19T07:29:44;24.50;40.00
39695;DHT22;25367;-35.352;149.036;2022-08-19T07:32:14;24.50;40.10
39695;DHT22;25367;-35.352;149.036;2022-08-19T07:34:43;24.40;40.10
39695;DHT22;25367;-35.352;149.036;2022-08-19T07:37:13;24.40;40.10
39695;DHT22;25367;-35.352;149.036;2022-08-19T07:39:44;24.50;40.10
39695;DHT22;25367;-35.352;149.036;2022-08-19T07:42:14;24.50;40.10
39695;DHT22;25367;-35.352;149.036;2022-08-19T07:44:43;24.50;40.00
39695;DHT22;25367;-35.352;149.036;2022-08-19T07:47:12;24.50;40.00
39695;DHT22;25367;-35.352;149.036;2022-08-19T07:49:42;24.40;40.00
39695;DHT22;25367;-35.352;149.036;2022-08-19T07:52:11;24.50;39.90
39695;DHT22;25367;-35.352;149.036;2022-08-19T07:54:43;24.50;40.00
39695;DHT22;25367;-35.352;149.036;2022-08-19T07:57:12;24.40;40.00
39695;DHT22;25367;-35.352;149.036;2022-08-19T07:59:41;24.30;39.90
39695;DHT22;25367;-35.352;149.036;2022-08-19T08:02:11;24.30;40.00
39695;DHT22;25367;-35.352;149.036;2022-08-19T08:04:40;24.30;40.10
39695;DHT22;25367;-35.352;149.036;2022-08-19T08:07:10;24.20;40.00
39695;DHT22;25367;-35.352;149.036;2022-08-19T08:09:40;24.20;40.00
39695;DHT22;25367;-35.352;149.036;2022-08-19T08:12:15;24.20;39.90
39695;DHT22;25367;-35.352;149.036;2022-08-19T08:14:46;24.30;39.80
39695;DHT22;25367;-35.352;149.036;2022-08-19T08:17:17;24.30;39.80
39695;DHT22;25367;-35.352;149.036;2022-08-19T08:19:47;24.30;39.80
39695;DHT22;25367;-35.352;149.036;2022-08-19T08:22:17;24.40;40.90
39695;DHT22;25367;-35.352;149.036;2022-08-19T08:24:47;24.40;40.70
39695;DHT22;25367;-35.352;149.036;2022-08-19T08:27:18;24.30;40.50
39695;DHT22;25367;-35.352;149.036;2022-08-19T08:29:48;24.20;40.80
39695;DHT22;25367;-35.352;149.036;2022-08-19T08:32:17;24.10;40.90
39695;DHT22;25367;-35.352;149.036;2022-08-19T08:34:47;24.00;41.10
39695;DHT22;25367;-35.352;149.036;2022-08-19T08:37:16;23.90;41.40
39695;DHT22;25367;-35.352;149.036;2022-08-19T08:39:45;24.00;41.10
39695;DHT22;25367;-35.352;149.036;2022-08-19T08:42:20;24.20;40.30
39695;DHT22;25367;-35.352;149.036;2022-08-19T08:44:56;24.20;40.30
39695;DHT22;25367;-35.352;149.036;2022-08-19T08:47:30;24.10;40.20
39695;DHT22;25367;-35.352;149.036;2022-08-19T08:50:04;24.30;40.00
39695;DHT22;25367;-35.352;149.036;2022-08-19T08:52:36;24.30;39.90
39695;DHT22;25367;-35.352;149.036;2022-08-19T08:55:10;24.20;40.30
39695;DHT22;25367;-35.352;149.036;2022-08-19T08:57:47;24.30;39.90
39695;DHT22;25367;-35.352;149.036;2022-08-19T09:00:21;24.30;39.90
39695;DHT22;25367;-35.352;149.036;2022-08-19T09:02:51;24.20;40.10
39695;DHT22;25367;-35.352;149.036;2022-08-19T09:05:21;24.20;40.00
39695;DHT22;25367;-35.352;149.036;2022-08-19T09:07:58;24.10;40.00
39695;DHT22;25367;-35.352;149.036;2022-08-19T09:10:31;24.30;40.00
39695;DHT22;25367;-35.352;149.036;2022-08-19T09:13:05;24.20;39.80
39695;DHT22;25367;-35.352;149.036;2022-08-19T09:15:39;24.30;39.80
39695;DHT22;25367;-35.352;149.036;2022-08-19T09:18:08;24.30;39.80
39695;DHT22;25367;-35.352;149.036;2022-08-19T09:20:38;24.20;39.80
39695;DHT22;25367;-35.352;149.036;2022-08-19T09:23:07;24.20;39.80
39695;DHT22;25367;-35.352;149.036;2022-08-19T09:25:36;24.20;39.70
39695;DHT22;25367;-35.352;149.036;2022-08-19T09:28:08;24.20;39.80
39695;DHT22;25367;-35.352;149.036;2022-08-19T09:30:40;24.20;39.70
39695;DHT22;25367;-35.352;149.036;2022-08-19T09:33:11;24.30;39.60
39695;DHT22;25367;-35.352;149.036;2022-08-19T09:35:40;24.00;39.80
39695;DHT22;25367;-35.352;149.036;2022-08-19T09:38:10;24.00;39.90
39695;DHT22;25367;-35.352;149.036;2022-08-19T09:40:39;24.00;39.90
39695;DHT22;25367;-35.352;149.036;2022-08-19T09:43:12;24.20;39.70
39695;DHT22;25367;-35.352;149.036;2022-08-19T09:45:42;24.10;40.30
39695;DHT22;25367;-35.352;149.036;2022-08-19T09:48:11;24.20;40.60
39695;DHT22;25367;-35.352;149.036;2022-08-19T09:50:41;24.20;40.60
39695;DHT22;25367;-35.352;149.036;2022-08-19T09:53:15;24.20;40.10
39695;DHT22;25367;-35.352;149.036;2022-08-19T09:55:45;24.10;40.20
39695;DHT22;25367;-35.352;149.036;2022-08-19T09:58:18;24.10;40.30
39695;DHT22;25367;-35.352;149.036;2022-08-19T10:00:47;24.00;40.40
39695;DHT22;25367;-35.352;149.036;2022-08-19T10:03:17;24.00;40.40
39695;DHT22;25367;-35.352;149.036;2022-08-19T10:05:47;24.00;40.40
39695;DHT22;25367;-35.352;149.036;2022-08-19T10:08:17;24.00;40.30
39695;DHT22;25367;-35.352;149.036;2022-08-19T10:10:48;24.00;40.60
39695;DHT22;25367;-35.352;149.036;2022-08-19T10:13:23;24.00;40.80
39695;DHT22;25367;-35.352;149.036;2022-08-19T10:15:53;24.00;40.70
39695;DHT22;25367;-35.352;149.036;2022-08-19T10:18:23;24.10;40.60
39695;DHT22;25367;-35.352;149.036;2022-08-19T10:21:04;24.20;40.90
39695;DHT22;25367;-35.352;149.036;2022-08-19T10:23:34;24.40;41.20
39695;DHT22;25367;-35.352;149.036;2022-08-19T10:26:07;24.80;40.60
39695;DHT22;25367;-35.352;149.036;2022-08-19T10:28:41;25.20;39.70
39695;DHT22;25367;-35.352;149.036;2022-08-19T10:31:14;25.20;39.60
39695;DHT22;25367;-35.352;149.036;2022-08-19T10:33:45;25.30;39.30
39695;DHT22;25367;-35.352;149.036;2022-08-19T10:36:17;25.60;39.10
39695;DHT22;25367;-35.352;149.036;2022-08-19T10:38:48;25.80;38.70
39695;DHT22;25367;-35.352;149.036;2022-08-19T10:41:19;26.10;38.10
39695;DHT22;25367;-35.352;149.036;2022-08-19T10:43:53;26.40;37.80
39695;DHT22;25367;-35.352;149.036;2022-08-19T10:46:24;26.60;37.60
39695;DHT22;25367;-35.352;149.036;2022-08-19T10:48:55;26.90;37.10
39695;DHT22;25367;-35.352;149.036;2022-08-19T10:51:24;27.20;36.60
39695;DHT22;25367;-35.352;149.036;2022-08-19T10:53:54;27.20;36.30
39695;DHT22;25367;-35.352;149.036;2022-08-19T10:56:24;27.10;36.30
39695;DHT22;25367;-35.352;149.036;2022-08-19T10:58:57;26.90;36.30
39695;DHT22;25367;-35.352;149.036;2022-08-19T11:01:27;26.80;36.90
39695;DHT22;25367;-35.352;149.036;2022-08-19T11:03:56;26.70;38.00
39695;DHT22;25367;-35.352;149.036;2022-08-19T11:06:26;26.60;38.00
39695;DHT22;25367;-35.352;149.036;2022-08-19T11:08:56;26.40;37.50
39695;DHT22;25367;-35.352;149.036;2022-08-19T11:11:25;26.50;37.60
39695;DHT22;25367;-35.352;149.036;2022-08-19T11:13:58;26.40;38.20
39695;DHT22;25367;-35.352;149.036;2022-08-19T11:16:27;26.30;38.40
39695;DHT22;25367;-35.352;149.036;2022-08-19T11:18:59;26.20;38.40
39695;DHT22;25367;-35.352;149.036;2022-08-19T11:21:30;26.10;38.50
39695;DHT22;25367;-35.352;149.036;2022-08-19T11:24:02;25.90;38.50
39695;DHT22;25367;-35.352;149.036;2022-08-19T11:26:34;25.90;38.80
39695;DHT22;25367;-35.352;149.036;2022-08-19T11:29:09;25.80;38.90
39695;DHT22;25367;-35.352;149.036;2022-08-19T11:31:39;25.70;39.20
39695;DHT22;25367;-35.352;149.036;2022-08-19T11:34:12;25.60;39.00
39695;DHT22;25367;-35.352;149.036;2022-08-19T11:36:43;25.60;38.80
39695;DHT22;25367;-35.352;149.036;2022-08-19T11:39:16;25.70;38.60
39695;DHT22;25367;-35.352;149.036;2022-08-19T11:41:46;25.50;39.00
39695;DHT22;25367;-35.352;149.036;2022-08-19T11:44:17;25.60;38.90
39695;DHT22;25367;-35.352;149.036;2022-08-19T11:46:47;25.80;38.70
39695;DHT22;25367;-35.352;149.036;2022-08-19T11:49:18;26.20;38.10
39695;DHT22;25367;-35.352;149.036;2022-08-19T11:51:47;26.50;37.60
39695;DHT22;25367;-35.352;149.036;2022-08-19T11:54:17;26.50;37.40
39695;DHT22;25367;-35.352;149.036;2022-08-19T11:56:47;26.30;37.50
39695;DHT22;25367;-35.352;149.036;2022-08-19T11:59:19;26.30;38.30
39695;DHT22;25367;-35.352;149.036;2022-08-19T12:01:49;26.10;37.80
39695;DHT22;25367;-35.352;149.036;2022-08-19T12:04:18;26.00;37.90
39695;DHT22;25367;-35.352;149.036;2022-08-19T12:06:48;25.90;38.10
39695;DHT22;25367;-35.352;149.036;2022-08-19T12:09:17;25.80;37.90
39695;DHT22;25367;-35.352;149.036;2022-08-19T12:11:47;25.80;38.40
39695;DHT22;25367;-35.352;149.036;2022-08-19T12:14:19;25.80;38.30
39695;DHT22;25367;-35.352;149.036;2022-08-19T12:16:49;25.70;38.40
39695;DHT22;25367;-35.352;149.036;2022-08-19T12:19:18;25.60;38.70
39695;DHT22;25367;-35.352;149.036;2022-08-19T12:21:47;25.60;38.50
39695;DHT22;25367;-35.352;149.036;2022-08-19T12:24:17;25.60;38.40
39695;DHT22;25367;-35.352;149.036;2022-08-19T12:26:47;25.60;38.50
39695;DHT22;25367;-35.352;149.036;2022-08-19T12:29:18;25.50;38.60
39695;DHT22;25367;-35.352;149.036;2022-08-19T12:31:47;25.70;38.50
39695;DHT22;25367;-35.352;149.036;2022-08-19T12:34:17;26.10;37.90
39695;DHT22;25367;-35.352;149.036;2022-08-19T12:36:47;26.30;37.60
39695;DHT22;25367;-35.352;149.036;2022-08-19T12:39:16;26.20;37.50
39695;DHT22;25367;-35.352;149.036;2022-08-19T12:41:45;26.10;37.50
39695;DHT22;25367;-35.352;149.036;2022-08-19T12:44:18;26.00;37.60
39695;DHT22;25367;-35.352;149.036;2022-08-19T12:46:48;25.90;37.70
39695;DHT22;25367;-35.352;149.036;2022-08-19T12:49:17;25.90;37.70
39695;DHT22;25367;-35.352;149.036;2022-08-19T12:51:47;25.80;37.80
39695;DHT22;25367;-35.352;149.036;2022-08-19T12:54:16;25.80;38.00
39695;DHT22;25367;-35.352;149.036;2022-08-19T12:56:46;25.60;38.20
39695;DHT22;25367;-35.352;149.036;2022-08-19T12:59:19;25.60;38.20
39695;DHT22;25367;-35.352;149.036;2022-08-19T13:01:48;25.60;38.20
39695;DHT22;25367;-35.352;149.036;2022-08-19T13:04:18;25.40;38.50
39695;DHT22;25367;-35.352;149.036;2022-08-19T13:06:47;25.40;38.50
39695;DHT22;25367;-35.352;149.036;2022-08-19T13:09:16;25.30;38.60
39695;DHT22;25367;-35.352;149.036;2022-08-19T13:11:46;25.20;38.80
39695;DHT22;25367;-35.352;149.036;2022-08-19T13:14:15;25.20;38.60
39695;DHT22;25367;-35.352;149.036;2022-08-19T13:16:47;25.00;38.80
39695;DHT22;25367;-35.352;149.036;2022-08-19T13:19:17;25.10;39.50
39695;DHT22;25367;-35.352;149.036;2022-08-19T13:21:50;25.50;38.80
39695;DHT22;25367;-35.352;149.036;2022-08-19T13:24:19;25.60;38.40
39695;DHT22;25367;-35.352;149.036;2022-08-19T13:26:49;25.60;38.30
39695;DHT22;25367;-35.352;149.036;2022-08-19T13:29:18;25.60;38.00
39695;DHT22;25367;-35.352;149.036;2022-08-19T13:31:50;25.60;38.30
39695;DHT22;25367;-35.352;149.036;2022-08-19T13:34:26;25.50;38.50
39695;DHT22;25367;-35.352;149.036;2022-08-19T13:36:56;25.50;38.50
39695;DHT22;25367;-35.352;149.036;2022-08-19T13:39:25;25.40;38.40
39695;DHT22;25367;-35.352;149.036;2022-08-19T13:41:54;25.50;38.50
39695;DHT22;25367;-35.352;149.036;2022-08-19T13:44:24;25.30;38.60
39695;DHT22;25367;-35.352;149.036;2022-08-19T13:47:02;25.20;38.70
39695;DHT22;25367;-35.352;149.036;2022-08-19T13:49:32;25.20;38.70
39695;DHT22;25367;-35.352;149.036;2022-08-19T13:52:01;25.10;38.70
39695;DHT22;25367;-35.352;149.036;2022-08-19T13:54:30;25.10;38.80
39695;DHT22;25367;-35.352;149.036;2022-08-19T13:57:00;25.00;39.00
39695;DHT22;25367;-35.352;149.036;2022-08-19T13:59:29;24.90;39.00
39695;DHT22;25367;-35.352;149.036;2022-08-19T14:02:02;24.80;39.10
39695;DHT22;25367;-35.352;149.036;2022-08-19T14:04:31;24.80;39.20
39695;DHT22;25367;-35.352;149.036;2022-08-19T14:07:01;24.80;39.10
39695;DHT22;25367;-35.352;149.036;2022-08-19T14:09:31;24.80;39.20
39695;DHT22;25367;-35.352;149.036;2022-08-19T14:12:00;24.70;39.20
39695;DHT22;25367;-35.352;149.036;2022-08-19T14:14:29;24.70;39.30
39695;DHT22;25367;-35.352;149.036;2022-08-19T14:17:02;24.70;39.20
39695;DHT22;25367;-35.352;149.036;2022-08-19T14:19:34;24.70;39.20
39695;DHT22;25367;-35.352;149.036;2022-08-19T14:22:04;24.60;39.20
39695;DHT22;25367;-35.352;149.036;2022-08-19T14:24:33;24.60;39.30
39695;DHT22;25367;-35.352;149.036;2022-08-19T14:27:03;24.50;39.20
39695;DHT22;25367;-35.352;149.036;2022-08-19T14:29:33;24.50;39.30
39695;DHT22;25367;-35.352;149.036;2022-08-19T14:32:06;24.50;39.30
39695;DHT22;25367;-35.352;149.036;2022-08-19T14:34:34;24.40;39.40
39695;DHT22;25367;-35.352;149.036;2022-08-19T14:37:04;24.40;39.40
39695;DHT22;25367;-35.352;149.036;2022-08-19T14:39:33;24.40;39.90
39695;DHT22;25367;-35.352;149.036;2022-08-19T14:42:06;24.30;39.30
39695;DHT22;25367;-35.352;149.036;2022-08-19T14:44:35;24.30;39.30
39695;DHT22;25367;-35.352;149.036;2022-08-19T14:47:09;24.30;39.90
39695;DHT22;25367;-35.352;149.036;2022-08-19T14:49:39;24.30;39.40
39695;DHT22;25367;-35.352;149.036;2022-08-19T14:52:09;24.20;39.30
39695;DHT22;25367;-35.352;149.036;2022-08-19T14:54:38;24.20;39.20
39695;DHT22;25367;-35.352;149.036;2022-08-19T14:57:10;24.10;39.40
39695;DHT22;25367;-35.352;149.036;2022-08-19T14:59:40;24.20;39.50
39695;DHT22;25367;-35.352;149.036;2022-08-19T15:02:12;24.10;39.40
39695;DHT22;25367;-35.352;149.036;2022-08-19T15:04:41;24.10;39.40
39695;DHT22;25367;-35.352;149.036;2022-08-19T15:07:11;24.10;39.30
39695;DHT22;25367;-35.352;149.036;2022-08-19T15:09:40;24.20;39.20